Time;durP1;ratioP1;P1;durP2;ratioP2;P2;SDS_P1;SDS_P2;PMS_P1;PMS_P2;Temp;Humidity;BMP_temperature;BMP_pressure;BME280_temperature;BME280_humidity;BME280_pressure;Samples;Min_cycle;Max_cycle;Signal;HPM_P1;HPM_P2
2023/09/05 00:02:14;;;;;;;5.50;2.80;;;;;;;14.30;100.00;101841.66;5024010;28;20446;-86
2023/09/05 00:04:47;;;;;;;6.15;3.13;;;;;;;14.31;100.00;101847.94;5021876;28;20427;-88
2023/09/05 00:07:16;;;;;;;5.32;3.08;;;;;;;14.27;100.00;101847.69;5022859;28;20779;-87
2023/09/05 00:09:50;;;;;;;6.57;3.15;;;;;;;14.23;100.00;101844.66;5023850;28;20418;-88
2023/09/05 00:12:23;;;;;;;7.43;3.20;;;;;;;14.20;100.00;101842.47;5030089;28;20471;-88
2023/09/05 00:14:58;;;;;;;6.15;3.28;;;;;;;14.05;100.00;101828.81;5028655;28;20426;-85
2023/09/05 00:17:31;;;;;;;11.17;3.63;;;;;;;13.91;100.00;101829.38;5026009;28;20430;-88
2023/09/05 00:19:59;;;;;;;6.70;3.67;;;;;;;13.89;100.00;101837.03;5027520;28;20441;-86
2023/09/05 00:22:28;;;;;;;5.95;3.58;;;;;;;13.93;100.00;101829.94;5043966;28;20429;-88
2023/09/05 00:25:01;;;;;;;5.45;3.30;;;;;;;13.93;100.00;101837.28;5030023;28;20438;-88
2023/09/05 00:27:30;;;;;;;5.57;3.53;;;;;;;13.86;100.00;101828.56;5026229;28;20431;-87
2023/09/05 00:29:59;;;;;;;7.63;3.53;;;;;;;13.77;100.00;101829.09;5032210;28;20786;-87
2023/09/05 00:32:28;;;;;;;6.95;3.40;;;;;;;13.84;100.00;101826.09;5044144;28;20427;-88
2023/09/05 00:35:01;;;;;;;7.00;3.13;;;;;;;13.89;100.00;101825.25;5044949;28;20783;-85
2023/09/05 00:37:30;;;;;;;7.97;3.40;;;;;;;13.92;100.00;101825.53;5027944;28;20530;-87
2023/09/05 00:40:05;;;;;;;7.05;3.60;;;;;;;13.91;100.00;101823.91;5044370;28;20422;-88
2023/09/05 00:42:38;;;;;;;6.65;3.25;;;;;;;13.93;100.00;101829.09;5023729;28;20408;-87
2023/09/05 00:45:13;;;;;;;5.45;3.50;;;;;;;13.98;100.00;101829.09;5025434;28;20799;-86
2023/09/05 00:47:41;;;;;;;5.97;3.28;;;;;;;14.01;100.00;101817.59;5026650;28;20952;-88
2023/09/05 00:50:18;;;;;;;6.13;3.40;;;;;;;14.00;100.00;101823.34;5027349;28;20423;-86
2023/09/05 00:52:46;;;;;;;5.78;3.30;;;;;;;13.99;100.00;101827.16;5034613;28;20426;-87
2023/09/05 00:55:20;;;;;;;7.03;3.40;;;;;;;13.95;100.00;101824.97;5026522;28;21051;-86
2023/09/05 00:57:55;;;;;;;10.43;3.70;;;;;;;13.87;100.00;101816.50;5022306;28;20427;-87
2023/09/05 01:00:30;;;;;;;6.43;3.50;;;;;;;13.81;100.00;101809.38;5027442;28;20939;-88
2023/09/05 01:03:03;;;;;;;6.03;3.55;;;;;;;13.83;100.00;101821.69;5036152;28;20437;-86
2023/09/05 01:05:35;;;;;;;6.43;3.40;;;;;;;13.76;100.00;101821.16;5027010;28;20427;-86
2023/09/05 01:08:13;;;;;;;7.38;3.60;;;;;;;13.71;100.00;101826.63;5029609;28;20418;-86
2023/09/05 01:10:52;;;;;;;6.60;3.83;;;;;;;13.69;100.00;101815.97;5027886;28;20918;-86
2023/09/05 01:13:26;;;;;;;6.28;3.72;;;;;;;13.73;100.00;101816.25;5027362;28;20435;-88
2023/09/05 01:16:01;;;;;;;6.83;3.67;;;;;;;13.75;100.00;101812.16;5042265;28;20491;-87
2023/09/05 01:18:34;;;;;;;6.95;3.83;;;;;;;13.71;100.00;101805.56;5029412;28;20880;-88
2023/09/05 01:21:20;;;;;;;7.50;4.03;;;;;;;13.72;100.00;101799.00;5027869;28;20419;-88
2023/09/05 01:23:58;;;;;;;7.45;3.70;;;;;;;13.71;100.00;101805.56;5026868;28;20907;-87
2023/09/05 01:26:32;;;;;;;8.27;3.90;;;;;;;13.72;100.00;101792.72;5026785;28;20907;-85
2023/09/05 01:29:06;;;;;;;7.10;4.00;;;;;;;13.73;100.00;101791.63;5021965;28;20431;-85
2023/09/05 01:31:40;;;;;;;7.85;4.00;;;;;;;13.70;100.00;101783.94;5024441;28;20423;-86
2023/09/05 01:34:08;;;;;;;7.93;3.58;;;;;;;13.75;100.00;101784.78;5026692;28;20446;-87
2023/09/05 01:36:41;;;;;;;8.15;4.10;;;;;;;13.72;100.00;101779.84;5026859;28;20423;-86
2023/09/05 01:39:10;;;;;;;6.75;3.78;;;;;;;13.71;100.00;101783.69;5026039;28;20422;-86
2023/09/05 01:41:44;;;;;;;7.20;4.10;;;;;;;13.77;100.00;101774.38;5026873;28;21032;-87
2023/09/05 01:44:18;;;;;;;6.95;4.25;;;;;;;13.77;100.00;101776.31;5027782;28;20761;-87
2023/09/05 01:46:51;;;;;;;7.25;4.10;;;;;;;13.73;100.00;101776.03;5026401;28;20441;-88
2023/09/05 01:49:24;;;;;;;7.05;4.40;;;;;;;13.76;100.00;101767.25;5026544;28;20427;-87
2023/09/05 01:51:53;;;;;;;10.20;4.15;;;;;;;13.75;100.00;101776.56;5026262;28;20423;-88
2023/09/05 01:54:26;;;;;;;7.73;4.33;;;;;;;13.74;100.00;101776.81;5024549;28;20435;-87
2023/09/05 01:56:56;;;;;;;7.30;4.00;;;;;;;13.80;100.00;101777.66;5026570;28;20437;-86
2023/09/05 01:59:24;;;;;;;7.70;4.13;;;;;;;13.79;100.00;101776.84;5026704;28;20451;-85
2023/09/05 02:01:57;;;;;;;8.23;4.07;;;;;;;13.76;100.00;101775.47;5025560;28;20423;-88
2023/09/05 02:04:25;;;;;;;7.03;4.15;;;;;;;13.72;100.00;101768.09;5027616;28;20776;-88
2023/09/05 02:06:54;;;;;;;7.60;4.55;;;;;;;13.63;100.00;101773.31;5034125;28;20418;-88
2023/09/05 02:09:22;;;;;;;6.60;4.10;;;;;;;13.56;100.00;101776.31;5027128;28;20414;-87
2023/09/05 02:11:56;;;;;;;7.57;4.22;;;;;;;13.52;100.00;101777.94;5024683;28;20979;-86
2023/09/05 02:14:30;;;;;;;7.32;4.10;;;;;;;13.50;100.00;101773.84;5026518;28;20446;-89
2023/09/05 02:16:58;;;;;;;11.10;4.07;;;;;;;13.46;100.00;101778.22;5025774;28;20423;-88
2023/09/05 02:19:28;;;;;;;8.35;4.47;;;;;;;13.37;100.00;101778.75;5028067;28;20913;-87
2023/09/05 02:22:02;;;;;;;8.20;4.55;;;;;;;13.34;100.00;101771.06;5027365;28;20420;-88
2023/09/05 02:24:30;;;;;;;8.87;4.40;;;;;;;13.31;100.00;101766.13;5025649;28;20479;-89
2023/09/05 02:27:05;;;;;;;8.15;4.40;;;;;;;13.28;100.00;101761.19;5026638;28;20423;-87
2023/09/05 02:29:38;;;;;;;8.68;4.60;;;;;;;13.29;100.00;101768.31;5025506;28;20426;-85
2023/09/05 02:32:11;;;;;;;8.65;4.55;;;;;;;13.25;100.00;101768.03;5025822;28;20434;-86
2023/09/05 02:34:50;;;;;;;7.43;4.05;;;;;;;13.25;100.00;101767.22;5043270;28;20438;-89
2023/09/05 02:37:19;;;;;;;8.00;4.50;;;;;;;13.26;100.00;101763.41;5024347;28;20787;-89
2023/09/05 02:39:52;;;;;;;8.45;4.43;;;;;;;13.23;100.00;101762.03;5026654;28;20426;-83
2023/09/05 02:42:22;;;;;;;7.93;4.55;;;;;;;13.22;100.00;101756.81;5025609;28;20439;-88
2023/09/05 02:44:55;;;;;;;8.20;4.73;;;;;;;13.22;100.00;101754.09;5041393;28;20426;-88
2023/09/05 02:47:23;;;;;;;9.32;4.47;;;;;;;13.26;100.00;101757.94;5034747;28;20430;-86
2023/09/05 02:49:52;;;;;;;8.70;4.70;;;;;;;13.25;100.00;101753.53;5028305;28;20918;-87
2023/09/05 02:52:21;;;;;;;7.53;4.45;;;;;;;13.27;100.00;101763.13;5027937;28;20395;-88
2023/09/05 02:54:49;;;;;;;10.25;4.80;;;;;;;13.27;100.00;101754.91;5024658;28;20427;-87
2023/09/05 02:57:24;;;;;;;8.18;4.50;;;;;;;13.34;100.00;101759.28;5023218;28;20419;-85
2023/09/05 02:59:57;;;;;;;9.32;4.90;;;;;;;13.34;100.00;101751.09;5026227;28;20426;-87
2023/09/05 03:02:30;;;;;;;8.75;4.50;;;;;;;13.34;100.00;101757.41;5026723;28;20422;-87
2023/09/05 03:05:05;;;;;;;8.95;4.80;;;;;;;13.30;100.00;101753.56;5025956;28;20485;-87
2023/09/05 03:07:34;;;;;;;8.52;4.72;;;;;;;13.20;100.00;101754.38;5024997;28;20427;-87
2023/09/05 03:10:03;;;;;;;7.47;4.38;;;;;;;13.17;100.00;101759.53;5033821;28;20879;-87
2023/09/05 03:12:33;;;;;;;7.32;4.43;;;;;;;13.05;100.00;101760.63;5038976;28;20450;-87
2023/09/05 03:15:07;;;;;;;8.50;4.55;;;;;;;13.01;100.00;101747.75;5023939;28;20431;-87
2023/09/05 03:17:40;;;;;;;8.27;4.40;;;;;;;12.97;100.00;101750.22;5025286;28;20419;-87
2023/09/05 03:20:15;;;;;;;9.52;4.90;;;;;;;12.95;100.00;101743.38;5025078;28;20775;-87
2023/09/05 03:22:43;;;;;;;8.48;4.97;;;;;;;12.95;100.00;101741.47;5027034;28;20411;-87
2023/09/05 03:25:17;;;;;;;8.23;4.90;;;;;;;13.01;100.00;101747.75;5026982;28;20422;-87
2023/09/05 03:27:52;;;;;;;8.55;5.05;;;;;;;13.03;100.00;101732.72;5027469;28;20422;-85
2023/09/05 03:30:25;;;;;;;7.78;4.97;;;;;;;13.04;100.00;101737.13;5023160;28;20427;-89
2023/09/05 03:32:59;;;;;;;9.55;5.28;;;;;;;12.99;100.00;101734.38;5023915;28;20526;-88
2023/09/05 03:35:27;;;;;;;7.57;4.82;;;;;;;12.99;100.00;101736.28;5024433;28;20407;-87
2023/09/05 03:38:01;;;;;;;7.88;4.80;;;;;;;12.89;100.00;101726.97;5033778;28;20434;-89
2023/09/05 03:40:30;;;;;;;8.63;5.10;;;;;;;12.88;100.00;101735.44;5023732;28;20439;-89
2023/09/05 03:42:59;;;;;;;10.48;4.95;;;;;;;12.86;100.00;101727.50;5025825;28;20449;-85
2023/09/05 03:45:33;;;;;;;7.80;5.20;;;;;;;12.85;100.00;101727.78;5028386;28;20468;-87
2023/09/05 03:48:02;;;;;;;9.60;5.10;;;;;;;12.82;100.00;101726.41;5025717;28;20424;-85
2023/09/05 03:50:30;;;;;;;9.57;5.45;;;;;;;12.82;100.00;101728.34;5029325;28;20442;-87
2023/09/05 03:53:04;;;;;;;9.27;5.17;;;;;;;12.79;100.00;101721.50;5043988;28;20434;-86
2023/09/05 03:55:34;;;;;;;8.57;5.50;;;;;;;12.72;100.00;101723.66;5029188;28;20430;-88
2023/09/05 03:58:05;;;;;;;8.20;5.10;;;;;;;12.72;100.00;101716.28;5029327;28;20426;-86
2023/09/05 04:00:38;;;;;;;9.27;5.30;;;;;;;12.71;100.00;101716.56;5027867;28;20431;-88
2023/09/05 04:03:09;;;;;;;9.65;5.25;;;;;;;12.69;100.00;101715.97;5030164;28;20410;-86
2023/09/05 04:05:38;;;;;;;7.32;4.78;;;;;;;12.68;100.00;101712.44;5028680;28;20422;-87
2023/09/05 04:08:07;;;;;;;9.50;5.57;;;;;;;12.69;100.00;101705.91;5028954;28;20423;-88
2023/09/05 04:10:36;;;;;;;8.38;5.20;;;;;;;12.67;100.00;101699.88;5030056;28;20418;-87
2023/09/05 04:13:06;;;;;;;8.87;5.47;;;;;;;12.67;100.00;101708.06;5034604;28;20427;-86
2023/09/05 04:15:39;;;;;;;8.20;5.35;;;;;;;12.70;100.00;101707.53;5033311;28;20435;-85
2023/09/05 04:18:12;;;;;;;8.67;5.40;;;;;;;12.74;100.00;101705.09;5029212;28;20411;-86
2023/09/05 04:20:40;;;;;;;9.55;5.75;;;;;;;12.75;100.00;101699.34;5027372;28;20419;-89
2023/09/05 04:23:09;;;;;;;11.00;5.68;;;;;;;12.80;100.00;101695.81;5028030;28;20434;-88
2023/09/05 04:25:40;;;;;;;8.90;5.68;;;;;;;12.87;100.00;101688.19;5030282;28;20422;-87
2023/09/05 04:28:10;;;;;;;10.88;5.20;;;;;;;12.91;100.00;101685.72;5043490;28;20441;-87
2023/09/05 04:30:38;;;;;;;8.88;5.78;;;;;;;13.07;100.00;101689.31;5026533;28;20545;-88
2023/09/05 04:33:10;;;;;;;9.33;5.73;;;;;;;13.05;100.00;101692.31;5035377;28;20434;-86
2023/09/05 04:35:39;;;;;;;11.03;6.00;;;;;;;13.12;100.00;101697.50;5028559;28;20477;-86
2023/09/05 04:38:12;;;;;;;8.90;5.60;;;;;;;13.10;100.00;101691.47;5026964;28;20435;-86
2023/09/05 04:40:40;;;;;;;10.07;5.63;;;;;;;13.14;100.00;101699.97;5027423;28;20449;-88
2023/09/05 04:43:14;;;;;;;8.90;5.53;;;;;;;13.16;100.00;101697.78;5028615;28;20430;-87
2023/09/05 04:45:53;;;;;;;8.90;5.60;;;;;;;13.15;100.00;101707.09;5027639;28;20423;-88
2023/09/05 04:48:22;;;;;;;10.02;5.55;;;;;;;13.15;100.00;101702.44;5025523;28;20962;-88
2023/09/05 04:50:50;;;;;;;10.83;5.53;;;;;;;13.13;100.00;101695.59;5042138;28;20419;-87
2023/09/05 04:53:23;;;;;;;11.63;5.80;;;;;;;13.09;100.00;101698.03;5022704;28;20442;-88
2023/09/05 04:56:00;;;;;;;8.73;5.53;;;;;;;13.14;100.00;101697.22;5023019;28;20440;-88
2023/09/05 04:58:30;;;;;;;10.77;6.03;;;;;;;13.15;100.00;101699.69;5025387;28;20439;-87
2023/09/05 05:01:03;;;;;;;9.10;5.63;;;;;;;13.15;100.00;101704.34;5020800;28;20437;-85
2023/09/05 05:03:32;;;;;;;8.20;5.50;;;;;;;13.15;100.00;101707.09;5026154;28;20423;-84
2023/09/05 05:06:02;;;;;;;10.07;5.03;;;;;;;13.17;100.00;101707.63;5039017;28;20417;-88
2023/09/05 05:08:31;;;;;;;9.40;5.38;;;;;;;13.23;100.00;101699.16;5024121;28;21233;-89
2023/09/05 05:11:05;;;;;;;9.70;5.67;;;;;;;13.27;100.00;101700.25;5039110;28;20543;-88
2023/09/05 05:13:34;;;;;;;8.25;5.20;;;;;;;13.29;100.00;101699.97;5026542;28;20435;-85
2023/09/05 05:16:07;;;;;;;9.27;5.50;;;;;;;13.39;100.00;101702.72;5019552;28;20431;-87
2023/09/05 05:18:40;;;;;;;9.52;5.28;;;;;;;13.43;100.00;101706.53;5022767;28;20923;-87
2023/09/05 05:21:09;;;;;;;9.40;5.55;;;;;;;13.43;100.00;101711.22;5022782;28;20430;-87
2023/09/05 05:23:42;;;;;;;8.30;5.60;;;;;;;13.46;100.00;101704.38;5022094;28;20458;-87
2023/09/05 05:26:11;;;;;;;10.20;5.78;;;;;;;13.49;100.00;101710.13;5023318;28;20840;-88
2023/09/05 05:28:46;;;;;;;10.10;5.75;;;;;;;13.50;100.00;101695.34;5040123;28;20435;-88
2023/09/05 05:31:14;;;;;;;8.98;5.53;;;;;;;13.60;100.00;101698.09;5021435;28;20446;-83
2023/09/05 05:33:47;;;;;;;9.32;5.78;;;;;;;13.65;100.00;101702.72;5019162;28;20764;-88
2023/09/05 05:36:16;;;;;;;8.82;5.70;;;;;;;13.67;100.00;101700.53;5023608;28;20434;-87
2023/09/05 05:38:49;;;;;;;8.82;5.30;;;;;;;13.66;100.00;101698.06;5024108;28;20446;-87
2023/09/05 05:41:17;;;;;;;10.05;5.55;;;;;;;13.68;100.00;101691.22;5021847;28;20431;-87
2023/09/05 05:43:51;;;;;;;12.32;5.40;;;;;;;13.74;100.00;101683.81;5024594;28;21135;-92
2023/09/05 05:46:20;;;;;;;8.32;5.75;;;;;;;13.78;100.00;101688.47;5024816;28;20776;-86
2023/09/05 05:48:56;;;;;;;8.75;5.57;;;;;;;13.78;100.00;101683.00;5024055;28;20434;-88
2023/09/05 05:51:25;;;;;;;9.68;5.90;;;;;;;13.83;100.00;101689.56;5026856;28;20446;-86
2023/09/05 05:53:58;;;;;;;9.65;5.30;;;;;;;13.93;100.00;101684.06;5040675;28;20418;-89
2023/09/05 05:56:27;;;;;;;10.75;5.72;;;;;;;14.01;100.00;101685.41;5027261;28;21114;-89
2023/09/05 05:59:01;;;;;;;8.52;5.38;;;;;;;14.00;100.00;101697.44;5028261;28;20423;-89
2023/09/05 06:01:35;;;;;;;8.43;5.13;;;;;;;14.07;100.00;101690.59;5028880;28;20438;-85
2023/09/05 06:04:03;;;;;;;10.43;5.60;;;;;;;14.06;100.00;101683.47;5026847;28;20431;-86
2023/09/05 06:06:38;;;;;;;9.57;5.70;;;;;;;14.04;100.00;101685.66;5029313;28;20427;-87
2023/09/05 06:09:11;;;;;;;9.48;5.68;;;;;;;14.16;100.00;101687.28;5028025;28;20415;-86
2023/09/05 06:11:39;;;;;;;9.15;5.68;;;;;;;14.15;100.00;101685.63;5027901;28;20915;-88
2023/09/05 06:14:09;;;;;;;9.47;5.90;;;;;;;14.17;100.00;101687.00;5032414;28;20954;-87
2023/09/05 06:16:42;;;;;;;10.75;5.75;;;;;;;14.23;100.00;101691.34;5041718;28;20439;-87
2023/09/05 06:19:17;;;;;;;8.77;5.60;;;;;;;14.39;100.00;101683.91;5043219;28;20443;-87
2023/09/05 06:21:51;;;;;;;9.65;5.93;;;;;;;14.50;100.00;101681.09;5042935;28;20430;-90
2023/09/05 06:24:24;;;;;;;10.05;5.72;;;;;;;14.61;100.00;101685.41;5027616;28;20430;-86
2023/09/05 06:26:57;;;;;;;9.93;5.60;;;;;;;14.62;100.00;101689.78;5028022;28;20473;-90
2023/09/05 06:29:32;;;;;;;9.45;5.65;;;;;;;14.66;100.00;101685.41;5028346;28;20430;-89
2023/09/05 06:32:06;;;;;;;8.40;5.40;;;;;;;14.87;100.00;101680.63;5027017;28;20421;-87
2023/09/05 06:34:40;;;;;;;8.18;5.15;;;;;;;14.99;100.00;101682.22;5044672;28;20419;-88
2023/09/05 06:37:13;;;;;;;9.60;5.22;;;;;;;15.12;100.00;101681.53;5028694;28;20784;-87
2023/09/05 06:39:46;;;;;;;9.48;5.43;;;;;;;15.17;100.00;101680.69;5028453;28;20419;-89
2023/09/05 06:42:19;;;;;;;9.05;5.07;;;;;;;15.32;100.00;101675.09;5030190;28;20422;-88
2023/09/05 06:44:54;;;;;;;9.05;5.40;;;;;;;15.26;100.00;101678.97;4973395;28;21264;-83
2023/09/05 06:47:27;;;;;;;7.00;4.80;;;;;;;15.41;100.00;101676.09;5001185;28;20419;-86
2023/09/05 06:49:55;;;;;;;10.05;5.45;;;;;;;15.40;100.00;101685.44;5001839;28;20415;-90
2023/09/05 06:52:24;;;;;;;9.98;5.32;;;;;;;15.44;100.00;101680.22;5003536;28;20450;-89
2023/09/05 06:54:57;;;;;;;8.40;5.22;;;;;;;15.63;100.00;101672.88;5011991;28;20519;-85
2023/09/05 06:57:30;;;;;;;9.75;5.57;;;;;;;15.65;100.00;101675.34;5010628;28;20431;-88
2023/09/05 07:00:00;;;;;;;8.13;5.00;;;;;;;15.81;100.00;101667.78;5006365;28;20435;-84
2023/09/05 07:02:28;;;;;;;10.25;5.03;;;;;;;15.85;100.00;101670.75;5005061;28;20431;-87
2023/09/05 07:05:01;;;;;;;11.23;5.20;;;;;;;16.03;100.00;101678.22;5008172;28;20915;-88
2023/09/05 07:07:35;;;;;;;10.57;5.00;;;;;;;16.17;100.00;101674.78;5010027;28;20445;-89
2023/09/05 07:10:05;;;;;;;8.40;5.05;;;;;;;16.18;100.00;101673.69;5023185;28;20446;-86
2023/09/05 07:12:38;;;;;;;8.18;5.13;;;;;;;16.13;100.00;101669.88;5006480;28;20441;-89
2023/09/05 07:15:13;;;;;;;8.20;5.00;;;;;;;16.23;100.00;101677.19;5002025;28;20462;-88
2023/09/05 07:17:46;;;;;;;8.98;4.85;;;;;;;16.30;100.00;101679.56;5004783;28;20927;-84
2023/09/05 07:20:19;;;;;;;11.60;5.30;;;;;;;16.42;100.00;101679.97;5002839;28;20930;-86
2023/09/05 07:22:52;;;;;;;8.63;5.22;;;;;;;16.66;100.00;101677.16;5008954;28;20419;-87
2023/09/05 07:25:25;;;;;;;8.10;5.07;;;;;;;16.63;100.00;101671.44;5008625;28;20438;-85
2023/09/05 07:27:54;;;;;;;8.33;5.03;;;;;;;16.70;100.00;101671.06;5006564;28;20484;-88
2023/09/05 07:30:32;;;;;;;8.52;4.78;;;;;;;16.70;100.00;101671.06;5007018;28;20424;-89
2023/09/05 07:33:00;;;;;;;8.98;4.88;;;;;;;16.82;100.00;101671.41;5008248;28;20414;-87
2023/09/05 07:35:33;;;;;;;8.30;4.90;;;;;;;16.89;100.00;101680.16;5007896;28;21199;-88
2023/09/05 07:38:07;;;;;;;9.50;4.43;;;;;;;16.96;100.00;101666.84;5016245;28;20433;-86
2023/09/05 07:40:40;;;;;;;9.13;4.97;;;;;;;17.21;100.00;101677.72;5003766;28;20434;-84
2023/09/05 07:43:08;;;;;;;8.70;4.70;;;;;;;17.29;100.00;101674.28;5010718;28;20437;-89
2023/09/05 07:45:43;;;;;;;8.40;4.80;;;;;;;17.34;100.00;101671.44;4980239;28;20430;-84
2023/09/05 07:48:11;;;;;;;7.80;4.60;;;;;;;17.37;100.00;101668.09;5002110;28;20981;-85
2023/09/05 07:50:46;;;;;;;9.35;5.10;;;;;;;17.46;100.00;101674.53;5002288;28;20456;-85
2023/09/05 07:53:19;;;;;;;8.00;4.80;;;;;;;17.36;100.00;101669.22;5009834;28;20472;-87
2023/09/05 07:55:48;;;;;;;9.23;5.15;;;;;;;17.39;100.00;101665.06;5003167;28;20445;-86
2023/09/05 07:58:21;;;;;;;8.10;4.80;;;;;;;17.57;100.00;101664.16;5001531;28;20437;-85
2023/09/05 08:00:56;;;;;;;8.35;5.03;;;;;;;17.61;100.00;101667.94;5001882;28;20439;-85
2023/09/05 08:03:26;;;;;;;8.10;4.90;;;;;;;17.64;100.00;101670.09;5002801;28;20434;-87
2023/09/05 08:05:59;;;;;;;7.05;4.78;;;;;;;17.84;100.00;101671.66;5003251;28;20446;-86
2023/09/05 08:08:27;;;;;;;10.48;5.03;;;;;;;17.90;100.00;101671.53;5019391;28;20435;-84
2023/09/05 08:11:00;;;;;;;10.57;5.17;;;;;;;17.88;100.00;101673.78;5003533;28;20446;-85
2023/09/05 08:13:28;;;;;;;10.73;5.15;;;;;;;17.94;100.00;101676.16;5008252;28;20427;-85
2023/09/05 08:16:05;;;;;;;7.68;4.70;;;;;;;18.05;100.00;101664.94;5001603;28;20450;-87
2023/09/05 08:18:33;;;;;;;8.80;5.10;;;;;;;18.11;100.00;101661.78;5001399;28;20419;-86
2023/09/05 08:21:04;;;;;;;8.23;4.67;;;;;;;18.25;100.00;101660.94;5012912;28;20431;-85
2023/09/05 08:23:34;;;;;;;10.40;5.10;;;;;;;18.26;100.00;101657.88;5009210;28;20446;-84
2023/09/05 08:26:02;;;;;;;9.50;4.80;;;;;;;18.25;100.00;101661.75;5008763;28;20477;-83
2023/09/05 08:28:32;;;;;;;8.15;4.88;;;;;;;18.28;100.00;101660.34;5023173;28;20434;-85
2023/09/05 08:31:02;;;;;;;7.38;4.68;;;;;;;18.32;100.00;101670.41;5005237;28;21267;-85
2023/09/05 08:33:32;;;;;;;9.20;4.60;;;;;;;18.37;100.00;101672.25;5007728;28;20446;-85
2023/09/05 08:36:00;;;;;;;7.82;4.53;;;;;;;18.60;100.00;101666.78;5036524;28;20434;-83
2023/09/05 08:38:33;;;;;;;8.30;4.50;;;;;;;18.69;100.00;101673.22;5010133;28;20419;-85
2023/09/05 08:41:01;;;;;;;7.47;4.50;;;;;;;18.63;100.00;101680.78;5013265;28;20411;-84
2023/09/05 08:43:29;;;;;;;6.85;4.18;;;;;;;18.58;100.00;101669.06;5009518;28;20448;-83
2023/09/05 08:46:00;;;;;;;8.65;4.10;;;;;;;18.77;100.00;101677.19;5011555;28;20429;-86
2023/09/05 08:48:28;;;;;;;8.17;4.30;;;;;;;18.82;100.00;101675.13;5003470;28;20430;-84
2023/09/05 08:51:05;;;;;;;10.05;4.03;;;;;;;18.90;100.00;101672.78;5009108;28;21820;-83
2023/09/05 08:53:42;;;;;;;6.38;3.85;;;;;;;19.05;100.00;101677.91;5008454;28;21244;-84
2023/09/05 08:56:10;;;;;;;8.45;4.00;;;;;;;19.01;100.00;101669.44;5004816;28;20449;-84
2023/09/05 08:58:40;;;;;;;7.40;4.07;;;;;;;19.12;100.00;101671.97;5004757;28;20430;-84
2023/09/05 09:01:08;;;;;;;7.05;4.00;;;;;;;19.23;100.00;101667.81;5019967;28;20431;-85
2023/09/05 09:03:41;;;;;;;7.78;4.10;;;;;;;19.19;100.00;101666.81;5005231;28;20427;-85
2023/09/05 09:06:11;;;;;;;6.00;3.92;;;;;;;19.17;100.00;101672.66;5020570;28;20434;-85
2023/09/05 09:08:42;;;;;;;7.32;4.20;;;;;;;19.35;100.00;101668.03;5007556;28;20418;-85
2023/09/05 09:11:11;;;;;;;6.32;3.90;;;;;;;19.42;100.00;101673.13;5019972;28;20445;-84
2023/09/05 09:13:39;;;;;;;9.02;4.13;;;;;;;19.58;100.00;101683.75;5006822;28;20439;-86
2023/09/05 09:16:08;;;;;;;6.50;3.87;;;;;;;19.66;100.00;101672.75;5006091;28;20466;-86
2023/09/05 09:18:40;;;;;;;7.80;3.70;;;;;;;19.84;100.00;101675.63;5003686;28;20431;-86
2023/09/05 09:21:09;;;;;;;7.35;4.00;;;;;;;19.80;100.00;101678.19;5017108;28;20979;-85
2023/09/05 09:23:40;;;;;;;8.45;3.90;;;;;;;19.94;100.00;101682.81;5003281;28;20447;-84
2023/09/05 09:26:08;;;;;;;7.40;3.90;;;;;;;19.90;100.00;101677.13;5008575;28;20431;-86
2023/09/05 09:28:41;;;;;;;6.93;3.80;;;;;;;19.99;100.00;101677.94;5003335;28;21660;-86
2023/09/05 09:31:15;;;;;;;7.10;3.95;;;;;;;20.07;100.00;101667.28;5005134;28;20453;-86
2023/09/05 09:33:56;;;;;;;7.53;3.60;;;;;;;20.18;100.00;101658.34;5009626;28;20938;-85
2023/09/05 09:36:32;;;;;;;9.57;4.10;;;;;;;20.24;100.00;101649.91;5004108;28;20427;-86
2023/09/05 09:39:11;;;;;;;7.13;3.37;;;;;;;20.23;100.00;101654.59;5010750;28;20431;-86
2023/09/05 09:41:44;;;;;;;6.80;3.73;;;;;;;20.47;100.00;101653.38;5002799;28;20430;-85
2023/09/05 09:44:25;;;;;;;7.72;3.80;;;;;;;20.64;100.00;101647.81;4974235;28;20438;-85
2023/09/05 09:46:55;;;;;;;7.10;3.40;;;;;;;20.73;100.00;101643.16;5003310;28;20439;-86
2023/09/05 09:49:24;;;;;;;8.25;3.90;;;;;;;20.66;100.00;101641.97;5000363;28;20431;-83
2023/09/05 09:51:57;;;;;;;5.68;3.30;;;;;;;20.76;100.00;101641.69;5015328;28;20446;-85
2023/09/05 09:54:31;;;;;;;7.30;3.72;;;;;;;20.92;100.00;101630.91;5001821;28;20446;-85
2023/09/05 09:57:06;;;;;;;6.25;3.65;;;;;;;20.96;100.00;101631.09;5003584;28;20859;-84
2023/09/05 09:59:46;;;;;;;5.28;3.28;;;;;;;20.88;100.00;101632.72;5004524;28;20448;-85
2023/09/05 10:02:21;;;;;;;6.28;3.70;;;;;;;20.89;100.00;101634.34;5005506;28;20442;-85
2023/09/05 10:04:51;;;;;;;6.70;3.40;;;;;;;20.86;100.00;101635.81;5009192;28;21066;-85
2023/09/05 10:07:20;;;;;;;6.45;3.40;;;;;;;21.07;100.00;101632.38;5004570;28;20434;-86
2023/09/05 10:09:52;;;;;;;7.93;3.80;;;;;;;21.16;100.00;101644.25;4997200;28;20435;-85
2023/09/05 10:12:26;;;;;;;6.70;3.60;;;;;;;21.24;100.00;101637.06;5021643;28;20434;-86
2023/09/05 10:14:56;;;;;;;7.53;3.60;;;;;;;21.40;100.00;101640.09;5006932;28;20426;-84
2023/09/05 10:17:25;;;;;;;6.97;3.55;;;;;;;21.38;100.00;101636.88;5024946;28;20427;-84
2023/09/05 10:19:59;;;;;;;6.88;3.35;;;;;;;21.36;100.00;101636.38;5011984;28;20431;-86
2023/09/05 10:22:34;;;;;;;7.97;3.60;;;;;;;21.51;100.00;101638.59;5005188;28;20438;-86
2023/09/05 10:25:07;;;;;;;7.53;3.15;;;;;;;21.71;100.00;101631.56;5009388;28;20426;-84
2023/09/05 10:27:40;;;;;;;6.30;3.10;;;;;;;21.86;100.00;101637.66;5005848;28;20442;-84
2023/09/05 10:30:13;;;;;;;6.75;3.08;;;;;;;21.90;100.00;101633.91;5003620;28;20419;-83
2023/09/05 10:32:49;;;;;;;6.25;3.03;;;;;;;22.18;100.00;101632.59;5005372;28;20419;-83
2023/09/05 10:35:18;;;;;;;6.40;3.40;;;;;;;21.84;100.00;101631.66;5006648;28;20438;-85
2023/09/05 10:37:52;;;;;;;6.35;3.60;;;;;;;21.60;100.00;101630.31;5013406;28;20442;-83
2023/09/05 10:40:38;;;;;;;6.30;3.25;;;;;;;21.84;100.00;101626.91;5003060;28;20441;-85
2023/09/05 10:43:08;;;;;;;5.73;2.97;;;;;;;21.92;100.00;101619.72;5008303;28;20994;-83
2023/09/05 10:45:38;;;;;;;7.67;3.23;;;;;;;21.86;100.00;101619.09;4979233;28;20419;-85
2023/09/05 10:48:15;;;;;;;6.00;2.90;;;;;;;21.86;100.00;101615.50;5009772;28;20454;-85
2023/09/05 10:51:06;;;;;;;6.05;3.20;;;;;;;21.91;100.00;101609.78;5032948;28;21085;-84
2023/09/05 10:53:36;;;;;;;5.73;3.20;;;;;;;22.08;100.00;101617.16;5004717;28;21406;-85
2023/09/05 10:56:27;;;;;;;5.77;2.93;;;;;;;22.29;100.00;101613.59;5006021;28;20426;-84
2023/09/05 10:58:57;;;;;;;8.17;3.10;;;;;;;22.16;100.00;101604.41;5001439;28;20426;-86
2023/09/05 11:01:54;;;;;;;5.43;3.10;;;;;;;22.53;100.00;101599.09;5006228;28;20415;-85
2023/09/05 11:04:29;;;;;;;6.05;3.08;;;;;;;22.37;100.00;101594.19;5005011;28;20897;-84
2023/09/05 11:07:06;;;;;;;5.63;3.15;;;;;;;22.51;100.00;101593.06;4996812;28;21570;-85
2023/09/05 11:09:49;;;;;;;5.73;3.07;;;;;;;22.72;100.00;101593.88;5011385;28;20419;-84
2023/09/05 11:12:19;;;;;;;5.35;3.00;;;;;;;22.86;100.00;101593.56;5001209;28;20450;-83
2023/09/05 11:14:54;;;;;;;5.30;3.00;;;;;;;22.68;100.00;101586.56;5004646;28;21293;-86
2023/09/05 11:17:28;;;;;;;6.00;3.47;;;;;;;22.61;100.00;101581.56;5004005;28;20418;-85
2023/09/05 11:19:56;;;;;;;5.28;3.05;;;;;;;23.09;100.00;101573.72;5002601;28;20430;-83
2023/09/05 11:22:26;;;;;;;6.30;3.30;;;;;;;23.10;100.00;101573.41;5002879;28;20439;-86
2023/09/05 11:24:58;;;;;;;8.00;3.45;;;;;;;22.98;100.00;101572.53;5006289;28;20474;-84
2023/09/05 11:27:32;;;;;;;6.72;3.85;;;;;;;23.15;100.00;101574.38;5006626;28;20442;-86
2023/09/05 11:30:09;;;;;;;5.95;3.63;;;;;;;23.20;100.00;101574.13;5001058;28;20446;-85
2023/09/05 11:32:49;;;;;;;8.98;3.85;;;;;;;23.29;100.00;101568.47;5005861;28;20445;-84
2023/09/05 11:35:17;;;;;;;6.60;3.50;;;;;;;23.24;100.00;101566.72;5000576;28;20419;-84
2023/09/05 11:37:46;;;;;;;7.88;3.55;;;;;;;23.08;100.00;101567.38;4998579;28;20438;-85
2023/09/05 11:40:20;;;;;;;10.07;4.27;;;;;;;23.20;100.00;101565.78;5016043;28;20454;-84